Time;durP1;ratioP1;P1;durP2;ratioP2;P2;SDS_P1;SDS_P2;PMS_P1;PMS_P2;Temp;Humidity;BMP_temperature;BMP_pressure;BME280_temperature;BME280_humidity;BME280_pressure;Samples;Min_cycle;Max_cycle;Signal;HPM_P1;HPM_P2
2022/02/14 00:01:47;;;;;;;18.92;14.40;;;25.80;99.90;;;;;;4171656;28;20045;-66
2022/02/14 00:03:51;;;;;;;16.30;13.82;;;25.80;99.90;;;;;;4171188;28;20115;-66
2022/02/14 00:05:59;;;;;;;17.48;13.95;;;25.80;99.90;;;;;;4171790;28;20550;-64
2022/02/14 00:08:05;;;;;;;17.73;14.15;;;25.80;99.90;;;;;;4174742;28;20041;-66
2022/02/14 00:10:10;;;;;;;16.58;13.52;;;25.70;99.90;;;;;;4180354;28;20760;-67
2022/02/14 00:12:17;;;;;;;18.63;14.35;;;25.70;99.90;;;;;;4180680;28;20044;-67
2022/02/14 00:14:23;;;;;;;14.60;13.10;;;25.70;99.90;;;;;;4161062;28;20124;-67
2022/02/14 00:16:28;;;;;;;21.75;14.93;;;25.70;99.90;;;;;;4178265;28;20571;-67
2022/02/14 00:18:34;;;;;;;16.13;13.98;;;25.70;99.90;;;;;;4180384;28;20057;-66
2022/02/14 00:20:41;;;;;;;20.67;12.98;;;25.70;99.90;;;;;;4172496;28;20072;-67
2022/02/14 00:22:45;;;;;;;15.35;12.77;;;25.70;99.90;;;;;;4180593;28;20128;-67
2022/02/14 00:24:52;;;;;;;14.02;11.93;;;25.80;99.90;;;;;;4180436;28;20060;-67
2022/02/14 00:26:58;;;;;;;16.17;12.27;;;25.80;99.90;;;;;;4180219;28;20052;-67
2022/02/14 00:29:04;;;;;;;16.10;11.32;;;25.80;99.90;;;;;;4180264;28;20072;-67
2022/02/14 00:31:08;;;;;;;17.98;12.10;;;25.80;99.90;;;;;;4180050;28;20419;-67
2022/02/14 00:33:15;;;;;;;16.75;12.25;;;25.80;99.90;;;;;;4179671;28;20053;-67
2022/02/14 00:35:19;;;;;;;14.35;11.93;;;25.70;99.90;;;;;;4179053;28;20041;-66
2022/02/14 00:37:25;;;;;;;12.98;11.23;;;25.70;99.90;;;;;;4179325;28;20057;-66
2022/02/14 00:39:32;;;;;;;12.65;11.30;;;25.80;99.90;;;;;;4179847;28;20033;-67
2022/02/14 00:41:40;;;;;;;11.63;10.40;;;25.70;99.90;;;;;;4179751;28;20045;-66
2022/02/14 00:43:46;;;;;;;13.13;10.65;;;25.70;99.90;;;;;;4179455;28;20041;-66
2022/02/14 00:45:51;;;;;;;15.55;10.73;;;25.70;99.90;;;;;;4179398;28;20091;-66
2022/02/14 00:47:55;;;;;;;15.50;10.52;;;25.70;99.90;;;;;;4179406;28;20045;-66
2022/02/14 00:50:00;;;;;;;13.95;10.20;;;25.60;99.90;;;;;;4179538;28;20047;-67
2022/02/14 00:52:04;;;;;;;12.75;10.35;;;25.70;99.90;;;;;;4179603;28;20037;-68
2022/02/14 00:54:09;;;;;;;15.40;9.95;;;25.70;99.90;;;;;;4178856;28;20049;-67
2022/02/14 00:56:13;;;;;;;13.40;9.88;;;25.70;99.90;;;;;;4180031;28;20045;-67
2022/02/14 00:58:20;;;;;;;11.35;10.10;;;25.80;99.90;;;;;;4171942;28;20049;-67
2022/02/14 01:00:25;;;;;;;12.93;10.00;;;25.90;99.90;;;;;;4172307;28;20390;-65
2022/02/14 01:02:33;;;;;;;16.60;10.70;;;25.90;99.90;;;;;;4178795;28;20067;-67
2022/02/14 01:04:39;;;;;;;11.25;9.98;;;25.90;99.90;;;;;;4173157;28;20084;-68
2022/02/14 01:06:44;;;;;;;14.07;10.52;;;26.00;99.90;;;;;;4179786;28;20135;-67
2022/02/14 01:08:49;;;;;;;16.45;11.82;;;26.00;99.90;;;;;;4179800;28;20088;-67
2022/02/14 01:10:53;;;;;;;14.25;11.77;;;26.00;99.90;;;;;;4170110;28;20052;-66
2022/02/14 01:12:58;;;;;;;15.07;12.20;;;26.00;99.90;;;;;;4178300;28;20450;-66
2022/02/14 01:15:05;;;;;;;17.52;12.63;;;26.00;99.90;;;;;;4179325;28;20662;-67
2022/02/14 01:17:12;;;;;;;16.55;12.70;;;26.00;99.90;;;;;;4162187;28;20045;-67
2022/02/14 01:19:16;;;;;;;19.77;13.20;;;26.00;99.90;;;;;;4161948;28;20056;-66
2022/02/14 01:21:20;;;;;;;15.57;12.00;;;25.90;99.90;;;;;;4161922;28;20069;-66
2022/02/14 01:23:25;;;;;;;15.32;11.13;;;25.90;99.90;;;;;;4179441;28;20052;-66
2022/02/14 01:25:29;;;;;;;15.45;12.05;;;26.00;99.90;;;;;;4159156;28;20507;-66
2022/02/14 01:27:35;;;;;;;15.35;11.95;;;26.00;99.90;;;;;;4178286;28;20122;-66
2022/02/14 01:29:41;;;;;;;13.88;11.98;;;26.10;99.90;;;;;;4179359;28;20045;-66
2022/02/14 01:31:46;;;;;;;13.98;11.88;;;26.00;99.90;;;;;;2412411;28;10001467;-66
2022/02/14 01:33:50;;;;;;;17.20;12.55;;;26.00;99.90;;;;;;4179797;28;20076;-66
2022/02/14 01:35:56;;;;;;;17.60;13.50;;;26.10;99.90;;;;;;4179916;28;20045;-65
2022/02/14 01:38:02;;;;;;;14.77;11.85;;;26.20;99.90;;;;;;4179276;28;20049;-65
2022/02/14 01:40:09;;;;;;;16.00;12.27;;;26.20;99.90;;;;;;4172002;28;20120;-66
2022/02/14 01:42:16;;;;;;;14.68;12.25;;;26.20;99.90;;;;;;4179579;28;20099;-66
2022/02/14 01:44:43;;;;;;;13.10;11.77;;;26.20;99.90;;;;;;4173832;28;20607;-66
2022/02/14 01:46:47;;;;;;;14.82;11.65;;;26.30;99.90;;;;;;4174528;28;20071;-66
2022/02/14 01:48:53;;;;;;;14.52;12.40;;;26.40;99.90;;;;;;4192549;28;20041;-65
2022/02/14 01:50:57;;;;;;;19.02;12.00;;;26.40;99.90;;;;;;4177301;28;20037;-65
2022/02/14 01:53:02;;;;;;;14.90;11.48;;;26.40;99.90;;;;;;4173458;28;20136;-66
2022/02/14 01:55:09;;;;;;;13.15;11.75;;;26.50;99.90;;;;;;4178576;28;20095;-66
2022/02/14 01:57:16;;;;;;;13.68;11.80;;;26.50;99.90;;;;;;4179183;28;20118;-65
2022/02/14 01:59:22;;;;;;;14.43;12.27;;;26.50;99.90;;;;;;4177937;28;20044;-65
2022/02/14 02:01:26;;;;;;;13.65;11.85;;;26.40;99.90;;;;;;4179197;28;20403;-67
2022/02/14 02:03:30;;;;;;;13.45;11.77;;;26.50;99.90;;;;;;4194037;28;20078;-66
2022/02/14 02:05:34;;;;;;;17.45;12.23;;;26.50;99.90;;;;;;4178841;28;20418;-66
2022/02/14 02:07:41;;;;;;;14.30;12.20;;;26.50;99.90;;;;;;4179401;28;20477;-65
2022/02/14 02:09:46;;;;;;;13.68;11.27;;;26.50;99.90;;;;;;4178651;28;20049;-66
2022/02/14 02:14:09;;;;;;;12.30;11.00;;;26.30;99.90;;;;;;4179080;28;20076;-65
2022/02/14 02:16:16;;;;;;;12.65;10.43;;;26.20;99.90;;;;;;4178374;28;20124;-65
2022/02/14 02:18:23;;;;;;;13.05;10.48;;;25.90;99.90;;;;;;4178447;28;20581;-66
2022/02/14 02:20:29;;;;;;;15.40;10.57;;;25.90;99.90;;;;;;4176789;28;20037;-66
2022/02/14 02:22:34;;;;;;;11.98;9.95;;;26.00;99.90;;;;;;4182063;28;20053;-67
2022/02/14 02:24:49;;;;;;;12.15;9.88;;;25.90;99.90;;;;;;4176525;28;20041;-66
2022/02/14 02:27:04;;;;;;;11.00;9.30;;;25.80;99.90;;;;;;4185861;28;20136;-66
2022/02/14 02:29:09;;;;;;;12.68;9.52;;;25.60;99.90;;;;;;4178445;28;20049;-66
2022/02/14 02:31:13;;;;;;;11.60;9.57;;;25.60;99.90;;;;;;4177502;28;20041;-66
2022/02/14 02:33:20;;;;;;;13.27;10.43;;;25.50;99.90;;;;;;4160740;28;20524;-66
2022/02/14 02:35:25;;;;;;;13.70;9.93;;;25.30;99.90;;;;;;4172771;28;20045;-66
2022/02/14 02:37:30;;;;;;;11.57;10.07;;;25.30;99.90;;;;;;4173656;28;20056;-65
2022/02/14 02:39:35;;;;;;;11.48;9.98;;;25.50;99.90;;;;;;4177294;28;20106;-66
2022/02/14 02:41:39;;;;;;;12.60;10.18;;;25.60;99.90;;;;;;4177981;28;20057;-66
2022/02/14 02:43:43;;;;;;;14.73;9.98;;;25.40;99.90;;;;;;4176801;28;20583;-66
2022/02/14 02:45:54;;;;;;;10.68;9.32;;;25.40;99.90;;;;;;4178619;28;20071;-65
2022/02/14 02:47:58;;;;;;;11.32;9.88;;;25.60;99.90;;;;;;4178687;28;20049;-66
2022/02/14 02:50:05;;;;;;;13.32;9.57;;;25.60;99.90;;;;;;4178675;28;20057;-65
2022/02/14 02:52:12;;;;;;;12.02;9.15;;;25.60;99.90;;;;;;4178568;28;20045;-66
2022/02/14 02:54:19;;;;;;;10.90;8.32;;;25.70;99.90;;;;;;4178422;28;20075;-64
2022/02/14 02:56:26;;;;;;;9.35;8.32;;;25.80;99.90;;;;;;4180344;28;20647;-64
2022/02/14 02:58:32;;;;;;;13.30;8.10;;;25.90;99.90;;;;;;4185580;28;20399;-64
2022/02/14 03:00:36;;;;;;;10.55;8.10;;;25.60;99.90;;;;;;4177986;28;20102;-64
2022/02/14 03:02:42;;;;;;;9.38;7.30;;;25.60;99.90;;;;;;4178677;28;20052;-64
2022/02/14 03:04:49;;;;;;;12.05;7.90;;;25.80;99.90;;;;;;4184433;28;20055;-64
2022/02/14 03:06:53;;;;;;;10.60;7.85;;;25.90;99.90;;;;;;4178782;28;20053;-64
2022/02/14 03:08:59;;;;;;;11.80;7.10;;;25.90;99.90;;;;;;4186267;28;20043;-65
2022/02/14 03:11:05;;;;;;;9.60;5.40;;;26.00;99.90;;;;;;4181248;28;20052;-65
2022/02/14 03:13:10;;;;;;;4.78;4.28;;;25.80;99.30;;;;;;4182551;28;20041;-64
2022/02/14 03:15:16;;;;;;;4.80;3.53;;;25.90;98.10;;;;;;4181753;28;20052;-64
2022/02/14 03:17:23;;;;;;;5.55;3.90;;;26.00;96.30;;;;;;4191622;28;20063;-64
2022/02/14 03:19:28;;;;;;;5.10;3.30;;;25.90;96.50;;;;;;4198982;28;20037;-65
2022/02/14 03:21:35;;;;;;;4.38;3.28;;;25.90;96.20;;;;;;4187261;28;20123;-64
2022/02/14 03:23:39;;;;;;;4.32;3.10;;;26.00;96.10;;;;;;4181914;28;20429;-64
2022/02/14 03:25:43;;;;;;;5.45;3.42;;;26.00;96.30;;;;;;4180422;28;20045;-64
2022/02/14 03:27:49;;;;;;;4.60;3.50;;;25.90;95.90;;;;;;4181926;28;20040;-65
2022/02/14 03:29:57;;;;;;;4.05;3.35;;;25.90;95.80;;;;;;4184119;28;20459;-64
2022/02/14 03:32:01;;;;;;;6.13;3.58;;;25.90;95.60;;;;;;4184709;28;20037;-65
2022/02/14 03:34:08;;;;;;;6.28;3.75;;;26.00;95.70;;;;;;4181516;28;20091;-65
2022/02/14 03:36:15;;;;;;;4.72;3.72;;;25.90;95.80;;;;;;4181982;28;20057;-65
2022/02/14 03:38:19;;;;;;;4.57;3.85;;;25.90;94.90;;;;;;4181269;28;20045;-65
2022/02/14 03:40:26;;;;;;;6.15;4.05;;;25.90;95.40;;;;;;4181145;28;20422;-66
2022/02/14 03:42:33;;;;;;;12.18;3.78;;;26.00;95.00;;;;;;4181132;28;20045;-64
2022/02/14 03:44:37;;;;;;;6.20;4.35;;;26.00;95.40;;;;;;4181361;28;20072;-64
2022/02/14 03:46:44;;;;;;;5.97;4.65;;;26.20;95.50;;;;;;4172053;28;20049;-64
2022/02/14 03:48:51;;;;;;;8.35;5.07;;;26.30;95.70;;;;;;4174759;28;20615;-64
2022/02/14 03:50:56;;;;;;;8.20;5.70;;;26.30;96.80;;;;;;4181166;28;20049;-64
2022/02/14 03:53:03;;;;;;;6.43;5.20;;;26.10;97.60;;;;;;4180992;28;20091;-64
2022/02/14 03:55:11;;;;;;;8.10;5.45;;;26.00;98.10;;;;;;4179613;28;20135;-64
2022/02/14 03:57:16;;;;;;;9.32;5.22;;;25.90;98.40;;;;;;4180731;28;20076;-64
2022/02/14 03:59:23;;;;;;;6.45;5.45;;;25.80;98.90;;;;;;4181235;28;20076;-64
2022/02/14 04:01:30;;;;;;;6.82;5.43;;;25.90;99.00;;;;;;4181102;28;20602;-65
2022/02/14 04:03:34;;;;;;;7.40;5.10;;;25.80;98.10;;;;;;4180860;28;20041;-64
2022/02/14 04:05:39;;;;;;;7.20;5.35;;;26.00;98.00;;;;;;4188502;28;20052;-64
2022/02/14 04:07:45;;;;;;;7.05;5.50;;;25.70;98.20;;;;;;4181109;28;20056;-64
2022/02/14 04:09:50;;;;;;;10.68;4.85;;;25.60;98.10;;;;;;4180321;28;20045;-64
2022/02/14 04:11:56;;;;;;;5.97;5.10;;;25.60;97.80;;;;;;4180638;28;20037;-65
2022/02/14 04:14:03;;;;;;;5.68;5.03;;;25.50;97.90;;;;;;4181107;28;20102;-64
2022/02/14 04:16:09;;;;;;;8.25;5.03;;;25.50;98.10;;;;;;4180852;28;20083;-64
2022/02/14 04:18:17;;;;;;;5.85;4.90;;;25.60;98.20;;;;;;4183054;28;20132;-65
2022/02/14 04:20:24;;;;;;;8.50;4.93;;;25.50;98.30;;;;;;4181405;28;20049;-64
2022/02/14 04:22:29;;;;;;;6.43;4.78;;;25.50;98.30;;;;;;4176518;28;20056;-64
2022/02/14 04:24:36;;;;;;;7.07;4.78;;;25.50;98.40;;;;;;4180342;28;20513;-65
2022/02/14 04:26:42;;;;;;;7.22;5.55;;;25.50;98.50;;;;;;4188020;28;20131;-65
2022/02/14 04:28:47;;;;;;;7.38;5.25;;;25.20;98.50;;;;;;4180743;28;20048;-64
2022/02/14 04:30:52;;;;;;;6.78;5.32;;;25.20;98.70;;;;;;4180697;28;20095;-64
2022/02/14 04:32:59;;;;;;;7.07;5.00;;;25.10;99.30;;;;;;4176660;28;20049;-65
2022/02/14 04:35:04;;;;;;;10.18;5.65;;;25.10;99.50;;;;;;4173208;28;20041;-65
2022/02/14 04:37:12;;;;;;;7.75;5.57;;;25.10;99.40;;;;;;4172988;28;20132;-66
2022/02/14 04:39:16;;;;;;;7.47;5.13;;;25.30;99.20;;;;;;4180388;28;20048;-66
2022/02/14 04:41:21;;;;;;;10.20;5.10;;;25.30;99.30;;;;;;4180255;28;20049;-65
2022/02/14 04:43:27;;;;;;;6.93;4.60;;;25.30;98.80;;;;;;4179912;28;20041;-66
2022/02/14 04:45:34;;;;;;;6.30;4.30;;;24.90;99.00;;;;;;4180051;28;20061;-66
2022/02/14 04:47:38;;;;;;;8.85;4.57;;;24.80;98.50;;;;;;4180543;28;20041;-66
2022/02/14 04:49:44;;;;;;;6.70;4.75;;;24.90;98.80;;;;;;4180263;28;20048;-66
2022/02/14 04:51:51;;;;;;;6.72;5.00;;;24.80;98.70;;;;;;4184621;28;20128;-65
2022/02/14 04:53:55;;;;;;;6.30;4.25;;;24.80;98.90;;;;;;4179936;28;20045;-66
2022/02/14 04:56:02;;;;;;;6.90;4.60;;;25.00;98.50;;;;;;4179742;28;20473;-65
2022/02/14 04:58:08;;;;;;;5.85;4.25;;;25.00;98.10;;;;;;4180229;28;20048;-69
2022/02/14 05:00:16;;;;;;;6.82;4.60;;;24.90;98.30;;;;;;4180130;28;20091;-65
2022/02/14 05:02:23;;;;;;;6.38;4.18;;;24.90;98.70;;;;;;4180033;28;20037;-65
2022/02/14 05:04:30;;;;;;;5.80;3.92;;;24.90;98.60;;;;;;4179802;28;20053;-65
2022/02/14 05:06:34;;;;;;;8.75;4.32;;;24.70;98.60;;;;;;4173088;28;20076;-65
2022/02/14 05:08:41;;;;;;;6.28;4.47;;;24.60;98.90;;;;;;4179943;28;20045;-65
2022/02/14 05:10:47;;;;;;;5.82;4.07;;;24.90;98.50;;;;;;4194903;28;20804;-65
2022/02/14 05:12:51;;;;;;;5.47;4.57;;;24.90;98.40;;;;;;4179475;28;20041;-65
2022/02/14 05:14:56;;;;;;;7.38;4.38;;;24.90;98.60;;;;;;4179468;28;20056;-64
2022/02/14 05:17:00;;;;;;;6.03;4.30;;;24.80;99.00;;;;;;4179676;28;20119;-65
2022/02/14 05:19:05;;;;;;;8.35;4.30;;;24.70;99.00;;;;;;4179335;28;20045;-64
2022/02/14 05:21:11;;;;;;;7.47;4.22;;;24.60;99.00;;;;;;4178688;28;20084;-64
2022/02/14 05:23:17;;;;;;;6.60;3.90;;;24.70;98.90;;;;;;4184856;28;20106;-64
2022/02/14 05:25:22;;;;;;;5.93;4.30;;;24.70;98.50;;;;;;4187883;28;20083;-66
2022/02/14 05:27:28;;;;;;;6.57;3.75;;;24.70;98.70;;;;;;4185524;28;20055;-67
2022/02/14 05:29:34;;;;;;;5.78;4.35;;;24.90;98.60;;;;;;4179627;28;20475;-66
2022/02/14 05:31:39;;;;;;;4.57;3.67;;;25.00;98.20;;;;;;4183365;28;20052;-66
2022/02/14 05:33:45;;;;;;;6.75;3.90;;;25.00;98.10;;;;;;4177354;28;20114;-65
2022/02/14 05:35:52;;;;;;;4.10;3.50;;;24.90;98.10;;;;;;4179492;28;20506;-66
2022/02/14 05:37:57;;;;;;;6.43;4.22;;;24.40;98.40;;;;;;4178832;28;20041;-66
2022/02/14 05:40:04;;;;;;;5.15;3.97;;;24.40;99.20;;;;;;4178653;28;20075;-65
2022/02/14 05:42:13;;;;;;;6.82;4.18;;;24.60;98.90;;;;;;4179310;28;20139;-66
2022/02/14 05:44:17;;;;;;;6.53;3.97;;;24.60;99.00;;;;;;4178859;28;20033;-66
2022/02/14 05:46:21;;;;;;;5.78;3.85;;;24.80;98.90;;;;;;4178864;28;20075;-64
2022/02/14 05:48:26;;;;;;;5.85;3.95;;;24.80;98.60;;;;;;4179073;28;20068;-66
2022/02/14 05:50:32;;;;;;;8.15;4.05;;;24.70;98.90;;;;;;4178733;28;20044;-66
2022/02/14 05:52:39;;;;;;;7.00;4.15;;;24.70;98.80;;;;;;4178326;28;20072;-65
2022/02/14 05:54:45;;;;;;;6.80;4.47;;;24.80;98.40;;;;;;4165462;28;20404;-66
2022/02/14 05:56:50;;;;;;;5.78;4.32;;;24.90;98.30;;;;;;4171219;28;20051;-66
2022/02/14 05:58:58;;;;;;;6.15;3.90;;;24.70;98.30;;;;;;4178026;28;20153;-65
2022/02/14 06:01:04;;;;;;;7.53;4.28;;;24.70;98.80;;;;;;4179190;28;20061;-64
2022/02/14 06:03:09;;;;;;;5.03;4.10;;;24.80;98.50;;;;;;4179438;28;20041;-66
2022/02/14 06:05:17;;;;;;;5.07;4.38;;;24.90;99.10;;;;;;4179017;28;20077;-67
2022/02/14 06:07:23;;;;;;;6.32;4.57;;;24.70;98.90;;;;;;4179150;28;20049;-67
2022/02/14 06:09:28;;;;;;;5.88;4.60;;;24.70;98.90;;;;;;4178963;28;20041;-66
2022/02/14 06:11:35;;;;;;;7.18;4.63;;;24.60;99.20;;;;;;4178545;28;20124;-66
2022/02/14 06:13:41;;;;;;;7.40;4.93;;;24.40;99.30;;;;;;4177134;28;20051;-66
2022/02/14 06:15:51;;;;;;;6.32;5.07;;;24.40;99.10;;;;;;4179414;28;20041;-66
2022/02/14 06:17:59;;;;;;;7.68;5.03;;;24.50;99.20;;;;;;4171131;28;20171;-66
2022/02/14 06:20:07;;;;;;;6.30;5.47;;;24.60;98.90;;;;;;4179246;28;20045;-66
2022/02/14 06:22:12;;;;;;;7.60;4.97;;;24.60;99.10;;;;;;4179379;28;20048;-66
2022/02/14 06:24:18;;;;;;;7.78;5.28;;;24.80;98.90;;;;;;4179000;28;20102;-66
2022/02/14 06:26:23;;;;;;;6.60;5.07;;;24.90;99.00;;;;;;4179083;28;20080;-67
2022/02/14 06:28:28;;;;;;;8.27;5.57;;;24.70;99.10;;;;;;4177108;28;20554;-65
2022/02/14 06:30:32;;;;;;;8.88;5.30;;;24.50;99.80;;;;;;4179506;28;20037;-66
2022/02/14 06:32:36;;;;;;;6.40;5.18;;;24.60;99.90;;;;;;4171645;28;20045;-66
2022/02/14 06:34:41;;;;;;;5.95;4.75;;;24.70;99.70;;;;;;4171088;28;20053;-66
2022/02/14 06:36:46;;;;;;;7.40;5.70;;;24.70;99.90;;;;;;4178992;28;20128;-66
2022/02/14 06:38:54;;;;;;;7.43;5.45;;;24.90;99.80;;;;;;4179320;28;20045;-66
2022/02/14 06:40:59;;;;;;;8.32;5.20;;;24.80;99.60;;;;;;4178649;28;20044;-66
2022/02/14 06:43:05;;;;;;;7.38;5.22;;;24.80;99.70;;;;;;4184302;28;20142;-66
2022/02/14 06:45:13;;;;;;;7.43;5.22;;;24.80;99.60;;;;;;4181494;28;20394;-66
2022/02/14 06:47:21;;;;;;;9.10;5.65;;;24.90;99.00;;;;;;4175496;28;20462;-67
2022/02/14 06:49:29;;;;;;;10.73;5.40;;;24.80;99.20;;;;;;4182854;28;20499;-67
2022/02/14 06:51:36;;;;;;;7.15;5.18;;;24.70;98.70;;;;;;4181711;28;20498;-67
2022/02/14 06:53:41;;;;;;;6.38;5.05;;;24.60;98.80;;;;;;4176061;28;20049;-66
2022/02/14 06:55:45;;;;;;;8.65;5.75;;;24.60;99.00;;;;;;4168054;28;20053;-66
2022/02/14 06:57:51;;;;;;;8.07;5.72;;;24.60;98.60;;;;;;4172816;28;20045;-68
2022/02/14 06:59:55;;;;;;;7.22;5.65;;;24.60;98.80;;;;;;4182074;28;20052;-67
2022/02/14 07:02:03;;;;;;;8.98;5.72;;;24.50;99.00;;;;;;4185625;28;20117;-68
2022/02/14 07:04:10;;;;;;;7.85;5.70;;;24.60;98.80;;;;;;4178038;28;20615;-68
2022/02/14 07:06:17;;;;;;;7.25;5.20;;;24.60;99.10;;;;;;4178074;28;20410;-67
2022/02/14 07:08:24;;;;;;;7.53;5.68;;;24.70;98.90;;;;;;4163732;28;20068;-68
2022/02/14 07:10:28;;;;;;;8.35;5.40;;;24.60;99.20;;;;;;4179165;28;20049;-67
2022/02/14 07:12:33;;;;;;;8.73;5.90;;;24.60;99.50;;;;;;4176468;28;20136;-68
2022/02/14 07:14:40;;;;;;;7.57;5.78;;;24.50;99.50;;;;;;4177552;28;20053;-67
2022/02/14 07:16:46;;;;;;;7.53;6.03;;;24.50;99.30;;;;;;4178739;28;20041;-67
2022/02/14 07:18:52;;;;;;;6.85;5.93;;;24.50;99.90;;;;;;4179273;28;20629;-67
2022/02/14 07:20:59;;;;;;;8.18;5.50;;;24.50;99.80;;;;;;4161984;28;20060;-67
2022/02/14 07:23:06;;;;;;;7.65;5.65;;;24.70;99.50;;;;;;4178486;28;20037;-67
2022/02/14 07:25:11;;;;;;;7.65;5.25;;;24.90;99.30;;;;;;4178996;28;20514;-67
2022/02/14 07:27:18;;;;;;;7.50;5.65;;;25.00;99.20;;;;;;4178446;28;20045;-68
2022/02/14 07:29:23;;;;;;;7.18;6.28;;;25.00;99.00;;;;;;4179119;28;20045;-68
2022/02/14 07:31:28;;;;;;;7.30;6.07;;;25.00;99.20;;;;;;4178651;28;20053;-68
2022/02/14 07:33:54;;;;;;;9.98;6.15;;;24.90;99.00;;;;;;4179770;28;20053;-67
2022/02/14 07:35:59;;;;;;;8.20;5.57;;;24.80;99.10;;;;;;4186132;28;20053;-67
2022/02/14 07:38:04;;;;;;;6.43;5.53;;;24.80;99.20;;;;;;4177082;28;20136;-67
2022/02/14 07:40:10;;;;;;;7.95;6.13;;;24.80;99.50;;;;;;4182377;28;20041;-68
2022/02/14 07:42:16;;;;;;;7.80;5.97;;;24.90;99.30;;;;;;4178307;28;20458;-68
2022/02/14 07:44:21;;;;;;;6.85;6.03;;;24.80;99.40;;;;;;4181231;28;20091;-67
2022/02/14 07:46:26;;;;;;;7.93;6.05;;;25.10;99.10;;;;;;4179810;28;20114;-68
2022/02/14 07:48:34;;;;;;;9.20;6.60;;;25.00;99.20;;;;;;4170987;28;20141;-67
2022/02/14 07:50:38;;;;;;;6.85;5.97;;;25.00;99.10;;;;;;4178813;28;20099;-67
2022/02/14 07:52:42;;;;;;;6.65;5.80;;;25.00;99.20;;;;;;4181005;28;20040;-67
2022/02/14 07:54:51;;;;;;;7.35;6.15;;;25.10;99.10;;;;;;4170625;28;20063;-67
2022/02/14 07:56:56;;;;;;;8.05;6.32;;;25.20;99.00;;;;;;4178238;28;20147;-67
2022/02/14 07:59:00;;;;;;;8.65;6.53;;;25.10;99.40;;;;;;4177252;28;20041;-68
2022/02/14 08:01:07;;;;;;;8.07;6.00;;;25.00;99.60;;;;;;4178189;28;20708;-67
2022/02/14 08:03:13;;;;;;;8.35;5.78;;;25.00;99.90;;;;;;4138272;28;20765;-67
2022/02/14 08:05:19;;;;;;;7.75;5.97;;;24.90;99.80;;;;;;4176996;28;20506;-67
2022/02/14 08:07:24;;;;;;;7.05;5.95;;;25.10;99.80;;;;;;4177603;28;20075;-67
2022/02/14 08:09:48;;;;;;;7.50;6.40;;;24.90;99.50;;;;;;4178821;28;20037;-67
2022/02/14 08:11:53;;;;;;;7.53;6.10;;;24.90;99.80;;;;;;4178111;28;20616;-67
2022/02/14 08:13:59;;;;;;;7.43;5.93;;;24.90;99.90;;;;;;4177913;28;20061;-67
2022/02/14 08:16:08;;;;;;;10.77;6.03;;;25.00;99.80;;;;;;4177153;28;20052;-67
2022/02/14 08:18:22;;;;;;;8.05;6.00;;;25.00;99.80;;;;;;4179821;28;20728;-68
2022/02/14 08:20:31;;;;;;;7.43;6.57;;;25.00;99.50;;;;;;4181092;28;20417;-68
2022/02/14 08:22:39;;;;;;;6.50;5.90;;;24.90;99.90;;;;;;4163252;28;20607;-68
2022/02/14 08:24:46;;;;;;;8.32;6.30;;;25.10;99.70;;;;;;4173699;28;20498;-68
2022/02/14 08:26:53;;;;;;;7.45;5.75;;;25.30;99.30;;;;;;4176582;28;20051;-68
2022/02/14 08:28:58;;;;;;;7.43;6.10;;;25.20;99.00;;;;;;4180020;28;20081;-67
2022/02/14 08:31:04;;;;;;;7.45;6.03;;;25.10;99.20;;;;;;4169462;28;20041;-67
2022/02/14 08:33:11;;;;;;;9.20;6.28;;;25.10;99.30;;;;;;4177248;28;20045;-68
2022/02/14 08:35:17;;;;;;;8.88;6.45;;;24.90;99.40;;;;;;4172083;28;20099;-67
2022/02/14 08:37:24;;;;;;;8.98;6.30;;;25.00;99.30;;;;;;4167720;28;20726;-67
2022/02/14 08:39:31;;;;;;;7.53;6.43;;;25.00;99.10;;;;;;4176721;28;20049;-67
2022/02/14 08:41:37;;;;;;;8.70;7.15;;;25.00;98.90;;;;;;4155753;28;20598;-67
2022/02/14 08:43:44;;;;;;;8.63;7.07;;;25.00;99.10;;;;;;4172675;28;20045;-67
2022/02/14 08:45:49;;;;;;;9.68;6.38;;;25.10;99.10;;;;;;4173101;28;22389;-67
2022/02/14 08:47:54;;;;;;;10.90;6.50;;;25.00;99.10;;;;;;4176602;28;20164;-66
2022/02/14 08:50:02;;;;;;;8.27;6.65;;;25.10;99.30;;;;;;4176673;28;20374;-67
2022/02/14 08:52:09;;;;;;;8.52;6.35;;;25.10;99.30;;;;;;4176519;28;20055;-67
2022/02/14 08:54:13;;;;;;;8.40;6.22;;;25.00;99.20;;;;;;4169733;28;20061;-67
2022/02/14 08:56:20;;;;;;;7.97;6.18;;;25.20;99.10;;;;;;4191580;28;20123;-67
2022/02/14 08:58:28;;;;;;;7.97;6.43;;;25.10;99.20;;;;;;4175079;28;20075;-66
2022/02/14 09:00:32;;;;;;;7.95;6.10;;;25.20;99.20;;;;;;4172255;28;20059;-67
2022/02/14 09:02:39;;;;;;;7.90;6.68;;;25.10;99.20;;;;;;4176441;28;20045;-67
2022/02/14 09:04:44;;;;;;;7.28;6.45;;;25.10;99.60;;;;;;4176237;28;20044;-67
2022/02/14 09:06:48;;;;;;;8.63;6.43;;;25.20;99.40;;;;;;4175502;28;20776;-67
2022/02/14 09:09:07;;;;;;;10.25;7.22;;;25.20;99.10;;;;;;4172678;28;20049;-67
2022/02/14 09:11:13;;;;;;;8.68;6.93;;;25.50;99.20;;;;;;4157303;28;20836;-67
2022/02/14 09:13:17;;;;;;;7.22;6.43;;;25.50;99.30;;;;;;4174473;28;20511;-67
2022/02/14 09:15:21;;;;;;;8.18;6.60;;;25.40;99.10;;;;;;4176848;28;20044;-67
2022/02/14 09:17:28;;;;;;;8.50;7.25;;;25.30;99.60;;;;;;4168333;28;20080;-67
2022/02/14 09:19:33;;;;;;;8.18;6.60;;;25.00;99.60;;;;;;4171444;28;20091;-68
2022/02/14 09:21:43;;;;;;;8.70;6.97;;;25.10;99.90;;;;;;4171267;28;20049;-67
2022/02/14 09:23:49;;;;;;;10.18;7.43;;;25.30;99.90;;;;;;4173570;28;20419;-66
2022/02/14 09:25:54;;;;;;;7.90;7.10;;;25.10;99.90;;;;;;4175225;28;20049;-67
2022/02/14 09:28:01;;;;;;;9.50;6.78;;;25.00;99.90;;;;;;4190667;28;20048;-67
2022/02/14 09:30:07;;;;;;;8.35;6.90;;;25.10;99.90;;;;;;4172878;28;20126;-67
2022/02/14 09:32:13;;;;;;;8.30;7.13;;;25.10;99.90;;;;;;4176024;28;20552;-68
2022/02/14 09:34:19;;;;;;;8.55;6.95;;;25.20;99.90;;;;;;4175665;28;20065;-68
2022/02/14 09:36:26;;;;;;;8.25;6.63;;;25.30;99.90;;;;;;4173938;28;20045;-67
2022/02/14 09:38:30;;;;;;;7.82;6.78;;;25.40;99.90;;;;;;4159999;28;20048;-67
2022/02/14 09:40:37;;;;;;;9.02;7.03;;;25.20;99.90;;;;;;2423804;28;10001668;-66
2022/02/14 09:42:47;;;;;;;9.02;7.40;;;25.10;99.90;;;;;;4174918;28;20048;-67
2022/02/14 09:44:51;;;;;;;10.05;7.05;;;25.10;99.90;;;;;;4164904;28;21646;-67
2022/02/14 09:46:58;;;;;;;9.38;7.35;;;25.10;99.90;;;;;;4156422;28;20062;-66
2022/02/14 09:49:03;;;;;;;9.15;7.40;;;24.80;99.90;;;;;;4154903;28;20057;-67
2022/02/14 09:51:08;;;;;;;8.65;6.80;;;24.90;99.90;;;;;;4138679;28;20050;-66
2022/02/14 09:53:15;;;;;;;7.72;6.88;;;25.10;99.90;;;;;;4157601;28;20107;-66
2022/02/14 09:55:22;;;;;;;8.57;7.10;;;25.10;99.90;;;;;;4157015;28;20061;-67
2022/02/14 09:57:26;;;;;;;8.73;7.22;;;24.90;99.90;;;;;;4155730;28;20055;-67
2022/02/14 09:59:32;;;;;;;8.50;7.10;;;25.10;99.90;;;;;;4155897;28;20057;-67
2022/02/14 10:01:37;;;;;;;9.25;7.25;;;25.10;99.90;;;;;;4139616;28;20053;-67
2022/02/14 10:03:54;;;;;;;8.77;7.35;;;25.00;99.90;;;;;;4155978;28;20471;-66
2022/02/14 10:06:01;;;;;;;9.68;7.35;;;25.00;99.90;;;;;;4157859;28;20810;-66
2022/02/14 10:08:09;;;;;;;10.40;7.35;;;25.10;99.90;;;;;;4156000;28;20049;-66
2022/02/14 10:10:15;;;;;;;8.98;6.95;;;25.10;99.90;;;;;;4152950;28;20670;-67
2022/02/14 10:12:21;;;;;;;10.27;7.95;;;25.00;99.90;;;;;;4156399;28;20045;-67
2022/02/14 10:14:28;;;;;;;10.55;7.38;;;24.80;99.90;;;;;;4140873;28;20045;-67
2022/02/14 10:16:33;;;;;;;10.15;7.55;;;24.60;99.90;;;;;;4169445;28;20615;-67
2022/02/14 10:18:40;;;;;;;11.07;8.45;;;24.50;99.90;;;;;;4174665;28;20144;-67
2022/02/14 10:21:26;;;;;;;10.52;8.73;;;24.60;99.90;;;;;;4174551;28;20053;-67
2022/02/14 10:23:32;;;;;;;8.80;7.57;;;24.60;99.90;;;;;;4173800;28;20056;-67
2022/02/14 10:25:42;;;;;;;8.48;7.60;;;24.60;99.90;;;;;;4153315;28;20477;-66
2022/02/14 10:27:47;;;;;;;9.63;7.68;;;24.70;99.90;;;;;;4152437;28;20132;-67
2022/02/14 10:29:51;;;;;;;9.18;7.88;;;24.70;99.90;;;;;;4155734;28;20050;-67
2022/02/14 10:32:01;;;;;;;10.13;8.30;;;24.90;99.90;;;;;;4154285;28;20052;-67
2022/02/14 10:34:08;;;;;;;10.25;8.75;;;24.80;99.90;;;;;;4151910;28;20060;-67
2022/02/14 10:36:31;;;;;;;11.15;9.18;;;24.60;99.90;;;;;;4155556;28;20107;-66
2022/02/14 10:38:37;;;;;;;12.60;8.60;;;24.50;99.90;;;;;;4155695;28;20034;-67
2022/02/14 10:40:42;;;;;;;10.43;8.48;;;24.60;99.90;;;;;;4153673;28;20045;-66
2022/02/14 10:42:50;;;;;;;10.52;8.38;;;24.70;99.90;;;;;;4155089;28;20049;-66
2022/02/14 10:47:19;;;;;;;10.93;8.65;;;24.70;99.90;;;;;;4141033;28;20109;-67
2022/02/14 10:49:24;;;;;;;10.32;8.55;;;24.60;99.90;;;;;;4155660;28;20045;-67
2022/02/14 10:51:28;;;;;;;10.70;8.45;;;24.70;99.90;;;;;;4155285;28;20340;-67
2022/02/14 10:53:43;;;;;;;10.05;7.70;;;24.60;99.90;;;;;;4151704;28;20569;-67
2022/02/14 10:55:55;;;;;;;10.65;8.15;;;24.80;99.90;;;;;;4155182;28;20068;-67
2022/02/14 10:58:03;;;;;;;9.93;8.15;;;24.60;99.90;;;;;;4173545;28;20064;-66